KSQL/SQL METAR and TAF weather

Enter ICAO airport designator
Station Type Date Time Source
KSQL METAR 2018/12/12 12:00 UTC NOAA

KSQL 121200Z AUTO 00000KT 10SM OVC009 12/10 A3022 RMK AO2


Station Type Date Time Source
KSQL Decoded METAR 2018/12/12 12:00 UTC NOAA

San Carlos Airport, CA, United States (KSQL) 37-31N 122-15W
Dec 12, 2018 - 07:00 AM EST / 2018.12.12 1200 UTC
Wind: Calm:0
Visibility: 10 mile(s):0
Sky conditions: overcast
Temperature: 53 F (12 C)
Dew Point: 50 F (10 C)
Relative Humidity: 87%
Pressure (altimeter): 30.22 in. Hg (1023 hPa)
ob: KSQL 121200Z AUTO 00000KT 10SM OVC009 12/10 A3022 RMK AO2
cycle: 12

Station Type Date Time Source
KSQL TAF UTC NOAA

Error!


Example: see airport list